Tropical Cyclones
[Index]
Main Index Home Page Stock Weather Photos Extreme Storms Discussion Storm News and Storm Chasing Reports Tropical Cyclones / Hurricanes / Typhoons Weather Data and Links Wild Fires / Bushfires Weather Observation Techniques Weather Picture Catalogue Tornado Pictures and Reports Stock Video Footage and DVDs for sale
Season 1983-1984 Tropical Cyclone JIM Track Map
Season 1983-1984 Summaries: [BoM-AU] [JTWC-AU] [JTWC-SIO] [JTWC-SPAC] [JTWC-SH]
<<- Previous TC | JTWC 1983-1984 Season | Next TC ->>

click for intensity scale information  Lat/long Grid: Show Hide

 Date Labels: Show Hide

Joint Typhoon Warning Centre Cyclone Data

Name: JIM

06 Mar 1984 06:00 UTC to 12 Mar 1984 06:00 UTC

    date/time    lat    long     hPa   cat  kts
1984-03-06 06   10.6   149.3                  25          
1984-03-06 12   10.9   148.3                  25          
1984-03-06 18   11.1   147.3                  30          
1984-03-07 00   11.3   146.3                  30          
1984-03-07 06   11.4   145.4                  35          
1984-03-07 12   11.6   144.5                  35          
1984-03-07 18   11.9   143.6                  30          
1984-03-08 00   12.5   142.8                  30          
1984-03-08 06   13.1   142.0                  35          
1984-03-08 12   13.3   141.2                  35          
1984-03-08 18   13.5   140.4                  35          
1984-03-09 00   13.8   139.4            1     40          
1984-03-09 06   14.0   138.2            1     45          
1984-03-09 12   14.1   136.8            1     45          
1984-03-09 18   14.2   135.4            1     40          
1984-03-10 00   14.8   133.8                  35          
1984-03-10 06   15.3   132.3                  30          
1984-03-10 12   15.5   131.1                  25          
1984-03-10 18   15.7   129.9                  25          
1984-03-11 00   15.9   128.6                  25          
1984-03-11 06   16.1   127.3                  25          
1984-03-11 12   16.7   126.1                  25          
1984-03-11 18   17.3   125.0                  25          
1984-03-12 00   17.5   124.3                  25          
1984-03-12 06   17.4   124.0                  20          
Winds are 1-min average.

Tropical cyclone tracks developed by Michael Bath using data from the Joint Typhoon Warning Centre Best Tracks and Google Maps.


[Australian Severe Weather index] [Copyright Notice] [Email Contacts] [Search This Site] [Privacy Policy]
Document: tropical_cyclone_jim.htm Updated: 18 September 2016